sensor_id;sensor_type;location;lat;lon;timestamp;P1;durP1;ratioP1;P2;durP2;ratioP2
10351;SDS011;5222;49.324;8.420;2022-09-02T00:01:31;1043.25;;;974.65;;
10351;SDS011;5222;49.324;8.420;2022-09-02T00:04:04;1034.57;;;965.85;;
10351;SDS011;5222;49.324;8.420;2022-09-02T00:06:32;1038.63;;;968.88;;
10351;SDS011;5222;49.324;8.420;2022-09-02T00:09:01;1035.50;;;966.83;;
10351;SDS011;5222;49.324;8.420;2022-09-02T00:11:30;1041.20;;;971.40;;
10351;SDS011;5222;49.324;8.420;2022-09-02T00:13:59;1043.40;;;974.33;;
10351;SDS011;5222;49.324;8.420;2022-09-02T00:16:28;1036.28;;;968.15;;
10351;SDS011;5222;49.324;8.420;2022-09-02T00:18:56;1045.60;;;977.22;;
10351;SDS011;5222;49.324;8.420;2022-09-02T00:21:24;1046.43;;;978.72;;
10351;SDS011;5222;49.324;8.420;2022-09-02T00:23:51;1045.93;;;977.45;;
10351;SDS011;5222;49.324;8.420;2022-09-02T00:26:18;1044.50;;;975.97;;
10351;SDS011;5222;49.324;8.420;2022-09-02T00:28:45;1050.00;;;982.38;;
10351;SDS011;5222;49.324;8.420;2022-09-02T00:31:13;1045.18;;;976.83;;
10351;SDS011;5222;49.324;8.420;2022-09-02T00:33:40;1046.10;;;977.70;;
10351;SDS011;5222;49.324;8.420;2022-09-02T00:36:07;1036.97;;;969.77;;
10351;SDS011;5222;49.324;8.420;2022-09-02T00:38:36;1045.00;;;977.08;;
10351;SDS011;5222;49.324;8.420;2022-09-02T00:41:05;1051.78;;;983.80;;
10351;SDS011;5222;49.324;8.420;2022-09-02T00:43:38;1055.65;;;987.30;;
10351;SDS011;5222;49.324;8.420;2022-09-02T00:46:08;1065.40;;;996.15;;
10351;SDS011;5222;49.324;8.420;2022-09-02T00:48:36;1050.57;;;982.20;;
10351;SDS011;5222;49.324;8.420;2022-09-02T00:51:05;1058.25;;;989.60;;
10351;SDS011;5222;49.324;8.420;2022-09-02T00:53:33;1050.88;;;982.75;;
10351;SDS011;5222;49.324;8.420;2022-09-02T00:56:05;1046.47;;;978.67;;
10351;SDS011;5222;49.324;8.420;2022-09-02T00:58:37;1060.03;;;991.53;;
10351;SDS011;5222;49.324;8.420;2022-09-02T01:01:05;1058.05;;;989.78;;
10351;SDS011;5222;49.324;8.420;2022-09-02T01:03:32;1062.27;;;994.00;;
10351;SDS011;5222;49.324;8.420;2022-09-02T01:05:59;1049.97;;;982.58;;
10351;SDS011;5222;49.324;8.420;2022-09-02T01:08:27;1056.93;;;989.28;;
10351;SDS011;5222;49.324;8.420;2022-09-02T01:10:57;1059.07;;;990.83;;
10351;SDS011;5222;49.324;8.420;2022-09-02T01:13:26;1057.82;;;989.53;;
10351;SDS011;5222;49.324;8.420;2022-09-02T01:15:56;1055.38;;;987.15;;
10351;SDS011;5222;49.324;8.420;2022-09-02T01:18:27;1055.90;;;987.43;;
10351;SDS011;5222;49.324;8.420;2022-09-02T01:20:54;1066.30;;;996.58;;
10351;SDS011;5222;49.324;8.420;2022-09-02T01:23:23;1070.72;;;999.90;;
10351;SDS011;5222;49.324;8.420;2022-09-02T01:25:52;1052.28;;;984.17;;
10351;SDS011;5222;49.324;8.420;2022-09-02T01:28:19;1025.15;;;957.58;;
10351;SDS011;5222;49.324;8.420;2022-09-02T01:30:46;1017.55;;;950.72;;
10351;SDS011;5222;49.324;8.420;2022-09-02T01:33:15;1017.38;;;949.13;;
10351;SDS011;5222;49.324;8.420;2022-09-02T01:35:44;1018.10;;;949.92;;
10351;SDS011;5222;49.324;8.420;2022-09-02T01:38:11;1014.13;;;946.17;;
10351;SDS011;5222;49.324;8.420;2022-09-02T01:40:40;1023.40;;;954.40;;
10351;SDS011;5222;49.324;8.420;2022-09-02T01:43:08;1008.90;;;941.67;;
10351;SDS011;5222;49.324;8.420;2022-09-02T01:45:37;1013.70;;;946.53;;
10351;SDS011;5222;49.324;8.420;2022-09-02T01:48:06;1007.53;;;941.03;;
10351;SDS011;5222;49.324;8.420;2022-09-02T01:50:34;1012.83;;;946.25;;
10351;SDS011;5222;49.324;8.420;2022-09-02T01:53:03;1019.55;;;952.80;;
10351;SDS011;5222;49.324;8.420;2022-09-02T01:55:30;1007.33;;;940.88;;
10351;SDS011;5222;49.324;8.420;2022-09-02T01:57:59;1014.92;;;948.92;;
10351;SDS011;5222;49.324;8.420;2022-09-02T02:00:26;1031.95;;;963.05;;
10351;SDS011;5222;49.324;8.420;2022-09-02T02:02:53;1021.05;;;954.22;;
10351;SDS011;5222;49.324;8.420;2022-09-02T02:05:20;1021.92;;;954.17;;
10351;SDS011;5222;49.324;8.420;2022-09-02T02:07:48;1028.43;;;960.97;;
10351;SDS011;5222;49.324;8.420;2022-09-02T02:10:16;1025.55;;;957.72;;
10351;SDS011;5222;49.324;8.420;2022-09-02T02:12:45;1024.78;;;957.38;;
10351;SDS011;5222;49.324;8.420;2022-09-02T02:15:14;1031.15;;;962.25;;
10351;SDS011;5222;49.324;8.420;2022-09-02T02:17:42;1012.00;;;945.63;;
10351;SDS011;5222;49.324;8.420;2022-09-02T02:20:09;1030.85;;;962.72;;
10351;SDS011;5222;49.324;8.420;2022-09-02T02:22:39;1027.55;;;960.15;;
10351;SDS011;5222;49.324;8.420;2022-09-02T02:25:06;1030.07;;;962.22;;
10351;SDS011;5222;49.324;8.420;2022-09-02T02:27:34;1024.73;;;957.67;;
10351;SDS011;5222;49.324;8.420;2022-09-02T02:30:01;1028.32;;;960.42;;
10351;SDS011;5222;49.324;8.420;2022-09-02T02:32:29;1048.68;;;978.72;;
10351;SDS011;5222;49.324;8.420;2022-09-02T02:34:56;1048.13;;;979.03;;
10351;SDS011;5222;49.324;8.420;2022-09-02T02:37:23;1044.25;;;975.78;;
10351;SDS011;5222;49.324;8.420;2022-09-02T02:39:50;1047.57;;;979.22;;
10351;SDS011;5222;49.324;8.420;2022-09-02T02:42:17;1049.45;;;979.83;;
10351;SDS011;5222;49.324;8.420;2022-09-02T02:44:44;1049.68;;;980.08;;
10351;SDS011;5222;49.324;8.420;2022-09-02T02:47:10;1034.05;;;965.35;;
10351;SDS011;5222;49.324;8.420;2022-09-02T02:49:39;1052.00;;;982.37;;
10351;SDS011;5222;49.324;8.420;2022-09-02T02:52:08;1044.70;;;975.47;;
10351;SDS011;5222;49.324;8.420;2022-09-02T02:54:36;1033.50;;;965.13;;
10351;SDS011;5222;49.324;8.420;2022-09-02T02:57:04;1039.25;;;971.00;;
10351;SDS011;5222;49.324;8.420;2022-09-02T02:59:31;1042.57;;;973.78;;
10351;SDS011;5222;49.324;8.420;2022-09-02T03:01:58;1038.70;;;969.88;;
10351;SDS011;5222;49.324;8.420;2022-09-02T03:04:25;1054.88;;;985.03;;
10351;SDS011;5222;49.324;8.420;2022-09-02T03:06:53;1049.38;;;978.67;;
10351;SDS011;5222;49.324;8.420;2022-09-02T03:09:20;1043.57;;;975.40;;
10351;SDS011;5222;49.324;8.420;2022-09-02T03:11:47;1059.75;;;990.42;;
10351;SDS011;5222;49.324;8.420;2022-09-02T03:14:14;1066.65;;;995.08;;
10351;SDS011;5222;49.324;8.420;2022-09-02T03:16:43;1060.68;;;990.40;;
10351;SDS011;5222;49.324;8.420;2022-09-02T03:19:09;1066.68;;;996.58;;
10351;SDS011;5222;49.324;8.420;2022-09-02T03:21:38;1063.93;;;994.20;;
10351;SDS011;5222;49.324;8.420;2022-09-02T03:24:07;1076.40;;;999.90;;
10351;SDS011;5222;49.324;8.420;2022-09-02T03:26:34;1063.15;;;992.88;;
10351;SDS011;5222;49.324;8.420;2022-09-02T03:29:01;1064.22;;;994.22;;
10351;SDS011;5222;49.324;8.420;2022-09-02T03:31:28;1069.03;;;998.35;;
10351;SDS011;5222;49.324;8.420;2022-09-02T03:33:55;1080.22;;;999.90;;
10351;SDS011;5222;49.324;8.420;2022-09-02T03:36:23;1075.90;;;999.90;;
10351;SDS011;5222;49.324;8.420;2022-09-02T03:38:53;1055.75;;;986.30;;
10351;SDS011;5222;49.324;8.420;2022-09-02T03:41:22;1060.20;;;990.10;;
10351;SDS011;5222;49.324;8.420;2022-09-02T03:43:49;1058.82;;;988.08;;
10351;SDS011;5222;49.324;8.420;2022-09-02T03:46:16;1069.03;;;997.95;;
10351;SDS011;5222;49.324;8.420;2022-09-02T03:48:43;1072.22;;;999.90;;
10351;SDS011;5222;49.324;8.420;2022-09-02T03:51:10;1065.68;;;995.47;;
10351;SDS011;5222;49.324;8.420;2022-09-02T03:53:37;1067.88;;;997.13;;
10351;SDS011;5222;49.324;8.420;2022-09-02T03:56:04;1077.63;;;999.90;;
10351;SDS011;5222;49.324;8.420;2022-09-02T03:58:34;1069.00;;;999.17;;
10351;SDS011;5222;49.324;8.420;2022-09-02T04:01:01;1078.35;;;999.90;;
10351;SDS011;5222;49.324;8.420;2022-09-02T04:03:28;1079.50;;;999.90;;
10351;SDS011;5222;49.324;8.420;2022-09-02T04:05:55;1078.78;;;999.90;;
10351;SDS011;5222;49.324;8.420;2022-09-02T04:08:22;1078.50;;;999.90;;
10351;SDS011;5222;49.324;8.420;2022-09-02T04:10:50;1086.00;;;999.90;;
10351;SDS011;5222;49.324;8.420;2022-09-02T04:13:17;1076.20;;;999.90;;
10351;SDS011;5222;49.324;8.420;2022-09-02T04:15:45;1073.95;;;999.90;;
10351;SDS011;5222;49.324;8.420;2022-09-02T04:18:13;1075.18;;;999.90;;
10351;SDS011;5222;49.324;8.420;2022-09-02T04:20:40;1077.45;;;999.90;;
10351;SDS011;5222;49.324;8.420;2022-09-02T04:23:08;1077.47;;;999.90;;
10351;SDS011;5222;49.324;8.420;2022-09-02T04:25:37;1078.63;;;999.90;;
10351;SDS011;5222;49.324;8.420;2022-09-02T04:28:05;1066.70;;;996.70;;
10351;SDS011;5222;49.324;8.420;2022-09-02T04:30:32;1073.30;;;999.90;;
10351;SDS011;5222;49.324;8.420;2022-09-02T04:33:00;1075.25;;;999.90;;
10351;SDS011;5222;49.324;8.420;2022-09-02T04:35:27;1084.30;;;999.90;;
10351;SDS011;5222;49.324;8.420;2022-09-02T04:37:54;1071.10;;;999.90;;
10351;SDS011;5222;49.324;8.420;2022-09-02T04:40:21;1078.35;;;999.90;;
10351;SDS011;5222;49.324;8.420;2022-09-02T04:42:48;1072.38;;;999.90;;
10351;SDS011;5222;49.324;8.420;2022-09-02T04:45:17;1080.35;;;999.90;;
10351;SDS011;5222;49.324;8.420;2022-09-02T04:47:44;1087.55;;;999.90;;
10351;SDS011;5222;49.324;8.420;2022-09-02T04:50:12;1076.40;;;999.90;;
10351;SDS011;5222;49.324;8.420;2022-09-02T04:52:39;1086.53;;;999.90;;
10351;SDS011;5222;49.324;8.420;2022-09-02T04:55:06;1083.78;;;999.90;;
10351;SDS011;5222;49.324;8.420;2022-09-02T04:57:34;1088.25;;;999.90;;
10351;SDS011;5222;49.324;8.420;2022-09-02T05:00:02;1089.78;;;999.90;;
10351;SDS011;5222;49.324;8.420;2022-09-02T05:02:29;1087.35;;;999.90;;
10351;SDS011;5222;49.324;8.420;2022-09-02T05:04:56;1084.22;;;999.90;;
10351;SDS011;5222;49.324;8.420;2022-09-02T05:07:25;1092.60;;;999.90;;
10351;SDS011;5222;49.324;8.420;2022-09-02T05:09:54;1086.60;;;999.90;;
10351;SDS011;5222;49.324;8.420;2022-09-02T05:12:22;1082.72;;;999.90;;
10351;SDS011;5222;49.324;8.420;2022-09-02T05:14:52;1091.78;;;999.90;;
10351;SDS011;5222;49.324;8.420;2022-09-02T05:17:19;1088.28;;;999.90;;
10351;SDS011;5222;49.324;8.420;2022-09-02T05:19:46;1085.13;;;999.90;;
10351;SDS011;5222;49.324;8.420;2022-09-02T05:22:13;1078.93;;;999.90;;
10351;SDS011;5222;49.324;8.420;2022-09-02T05:24:42;1084.20;;;999.90;;
10351;SDS011;5222;49.324;8.420;2022-09-02T05:27:08;1080.05;;;999.90;;
10351;SDS011;5222;49.324;8.420;2022-09-02T05:29:35;1074.88;;;999.90;;
10351;SDS011;5222;49.324;8.420;2022-09-02T05:32:02;1074.45;;;999.90;;
10351;SDS011;5222;49.324;8.420;2022-09-02T05:34:32;1075.10;;;999.90;;
10351;SDS011;5222;49.324;8.420;2022-09-02T05:36:59;1078.10;;;999.90;;
10351;SDS011;5222;49.324;8.420;2022-09-02T05:39:27;1071.80;;;999.90;;
10351;SDS011;5222;49.324;8.420;2022-09-02T05:41:56;1070.88;;;999.90;;
10351;SDS011;5222;49.324;8.420;2022-09-02T05:44:23;1068.88;;;996.60;;
10351;SDS011;5222;49.324;8.420;2022-09-02T05:46:49;1046.43;;;975.57;;
10351;SDS011;5222;49.324;8.420;2022-09-02T05:49:17;1035.55;;;966.03;;
10351;SDS011;5222;49.324;8.420;2022-09-02T05:51:46;1035.03;;;965.70;;
10351;SDS011;5222;49.324;8.420;2022-09-02T05:54:14;1052.97;;;981.38;;
10351;SDS011;5222;49.324;8.420;2022-09-02T05:56:43;1037.60;;;967.53;;
10351;SDS011;5222;49.324;8.420;2022-09-02T05:59:13;1044.25;;;974.45;;
10351;SDS011;5222;49.324;8.420;2022-09-02T06:01:40;1028.32;;;959.60;;
10351;SDS011;5222;49.324;8.420;2022-09-02T06:04:08;1022.03;;;952.10;;
10351;SDS011;5222;49.324;8.420;2022-09-02T06:06:35;1036.07;;;965.47;;
10351;SDS011;5222;49.324;8.420;2022-09-02T06:09:03;1022.63;;;953.38;;
10351;SDS011;5222;49.324;8.420;2022-09-02T06:11:30;1025.47;;;955.08;;
10351;SDS011;5222;49.324;8.420;2022-09-02T06:13:57;1023.50;;;953.30;;
10351;SDS011;5222;49.324;8.420;2022-09-02T06:16:26;1026.75;;;957.30;;
10351;SDS011;5222;49.324;8.420;2022-09-02T06:18:53;1026.82;;;958.45;;
10351;SDS011;5222;49.324;8.420;2022-09-02T06:21:19;1029.43;;;959.42;;
10351;SDS011;5222;49.324;8.420;2022-09-02T06:23:46;1032.72;;;963.08;;
10351;SDS011;5222;49.324;8.420;2022-09-02T06:26:13;1035.27;;;965.80;;
10351;SDS011;5222;49.324;8.420;2022-09-02T06:28:41;1034.03;;;964.10;;
10351;SDS011;5222;49.324;8.420;2022-09-02T06:31:08;1016.88;;;947.55;;
10351;SDS011;5222;49.324;8.420;2022-09-02T06:33:38;1030.20;;;960.85;;
10351;SDS011;5222;49.324;8.420;2022-09-02T06:36:06;1032.75;;;963.05;;
10351;SDS011;5222;49.324;8.420;2022-09-02T06:38:35;1030.60;;;960.83;;
10351;SDS011;5222;49.324;8.420;2022-09-02T06:41:03;1028.35;;;959.10;;
10351;SDS011;5222;49.324;8.420;2022-09-02T06:43:31;1036.10;;;966.40;;
10351;SDS011;5222;49.324;8.420;2022-09-02T06:45:57;1028.17;;;959.93;;
10351;SDS011;5222;49.324;8.420;2022-09-02T06:48:25;1018.80;;;950.43;;
10351;SDS011;5222;49.324;8.420;2022-09-02T06:50:53;988.60;;;921.90;;
10351;SDS011;5222;49.324;8.420;2022-09-02T06:53:20;967.55;;;901.90;;
10351;SDS011;5222;49.324;8.420;2022-09-02T06:55:48;949.80;;;885.30;;
10351;SDS011;5222;49.324;8.420;2022-09-02T06:58:16;966.42;;;901.55;;
10351;SDS011;5222;49.324;8.420;2022-09-02T07:00:43;982.53;;;916.67;;
10351;SDS011;5222;49.324;8.420;2022-09-02T07:03:12;1018.22;;;950.03;;
10351;SDS011;5222;49.324;8.420;2022-09-02T07:06:05;1029.22;;;960.90;;
10351;SDS011;5222;49.324;8.420;2022-09-02T07:08:35;994.90;;;927.45;;
10351;SDS011;5222;49.324;8.420;2022-09-02T07:11:03;992.05;;;925.30;;
10351;SDS011;5222;49.324;8.420;2022-09-02T07:13:31;977.95;;;911.85;;
10351;SDS011;5222;49.324;8.420;2022-09-02T07:15:58;946.33;;;881.70;;
10351;SDS011;5222;49.324;8.420;2022-09-02T07:18:25;912.53;;;847.97;;
10351;SDS011;5222;49.324;8.420;2022-09-02T07:20:52;781.87;;;721.77;;
10351;SDS011;5222;49.324;8.420;2022-09-02T07:23:21;758.63;;;699.15;;
10351;SDS011;5222;49.324;8.420;2022-09-02T07:25:48;774.38;;;714.83;;
10351;SDS011;5222;49.324;8.420;2022-09-02T07:28:15;771.33;;;711.83;;
10351;SDS011;5222;49.324;8.420;2022-09-02T07:30:42;768.88;;;709.55;;
10351;SDS011;5222;49.324;8.420;2022-09-02T07:33:09;761.53;;;703.00;;
10351;SDS011;5222;49.324;8.420;2022-09-02T07:35:38;760.53;;;700.67;;
10351;SDS011;5222;49.324;8.420;2022-09-02T07:38:05;766.28;;;706.83;;
10351;SDS011;5222;49.324;8.420;2022-09-02T07:40:33;770.63;;;709.38;;
10351;SDS011;5222;49.324;8.420;2022-09-02T07:43:01;764.17;;;704.83;;
10351;SDS011;5222;49.324;8.420;2022-09-02T07:45:28;764.20;;;703.88;;
10351;SDS011;5222;49.324;8.420;2022-09-02T07:47:55;761.20;;;702.17;;
10351;SDS011;5222;49.324;8.420;2022-09-02T07:50:22;749.75;;;690.42;;
10351;SDS011;5222;49.324;8.420;2022-09-02T07:52:51;761.75;;;701.50;;
10351;SDS011;5222;49.324;8.420;2022-09-02T07:55:18;738.25;;;679.60;;
10351;SDS011;5222;49.324;8.420;2022-09-02T07:57:47;762.72;;;702.17;;
10351;SDS011;5222;49.324;8.420;2022-09-02T08:00:15;747.47;;;689.08;;
10351;SDS011;5222;49.324;8.420;2022-09-02T08:02:43;762.67;;;702.67;;
10351;SDS011;5222;49.324;8.420;2022-09-02T08:05:11;764.35;;;703.50;;
10351;SDS011;5222;49.324;8.420;2022-09-02T08:07:39;761.08;;;701.58;;
10351;SDS011;5222;49.324;8.420;2022-09-02T08:10:07;760.00;;;700.50;;
10351;SDS011;5222;49.324;8.420;2022-09-02T08:12:36;755.22;;;696.00;;
10351;SDS011;5222;49.324;8.420;2022-09-02T08:15:06;749.58;;;690.30;;
10351;SDS011;5222;49.324;8.420;2022-09-02T08:17:34;759.63;;;699.65;;
10351;SDS011;5222;49.324;8.420;2022-09-02T08:20:01;761.95;;;702.10;;
10351;SDS011;5222;49.324;8.420;2022-09-02T08:22:31;763.15;;;703.03;;
10351;SDS011;5222;49.324;8.420;2022-09-02T08:24:58;761.13;;;701.20;;
10351;SDS011;5222;49.324;8.420;2022-09-02T08:27:25;759.35;;;699.97;;
10351;SDS011;5222;49.324;8.420;2022-09-02T08:29:51;754.10;;;694.92;;
10351;SDS011;5222;49.324;8.420;2022-09-02T08:32:20;750.20;;;690.55;;
10351;SDS011;5222;49.324;8.420;2022-09-02T08:34:46;762.97;;;702.88;;
10351;SDS011;5222;49.324;8.420;2022-09-02T08:37:13;773.40;;;712.63;;
10351;SDS011;5222;49.324;8.420;2022-09-02T08:39:40;766.33;;;705.05;;
10351;SDS011;5222;49.324;8.420;2022-09-02T08:42:08;768.28;;;707.47;;
10351;SDS011;5222;49.324;8.420;2022-09-02T08:44:43;759.63;;;699.67;;
10351;SDS011;5222;49.324;8.420;2022-09-02T08:47:12;744.45;;;685.65;;
10351;SDS011;5222;49.324;8.420;2022-09-02T08:49:46;766.90;;;705.65;;
10351;SDS011;5222;49.324;8.420;2022-09-02T08:52:17;757.00;;;697.72;;
10351;SDS011;5222;49.324;8.420;2022-09-02T08:54:52;753.30;;;693.50;;
10351;SDS011;5222;49.324;8.420;2022-09-02T08:57:20;735.23;;;675.77;;
10351;SDS011;5222;49.324;8.420;2022-09-02T08:59:51;746.57;;;686.67;;
10351;SDS011;5222;49.324;8.420;2022-09-02T09:02:20;727.17;;;669.03;;
10351;SDS011;5222;49.324;8.420;2022-09-02T09:04:55;736.88;;;678.13;;
10351;SDS011;5222;49.324;8.420;2022-09-02T09:07:32;742.67;;;683.70;;
10351;SDS011;5222;49.324;8.420;2022-09-02T09:10:05;733.90;;;675.05;;
10351;SDS011;5222;49.324;8.420;2022-09-02T09:12:47;741.47;;;682.03;;
10351;SDS011;5222;49.324;8.420;2022-09-02T09:15:27;735.40;;;676.33;;
10351;SDS011;5222;49.324;8.420;2022-09-02T09:17:59;729.57;;;671.57;;
10351;SDS011;5222;49.324;8.420;2022-09-02T09:20:30;740.25;;;681.33;;
10351;SDS011;5222;49.324;8.420;2022-09-02T09:23:01;740.10;;;680.67;;
10351;SDS011;5222;49.324;8.420;2022-09-02T09:25:35;745.45;;;685.03;;
10351;SDS011;5222;49.324;8.420;2022-09-02T09:28:02;737.35;;;678.72;;
10351;SDS011;5222;49.324;8.420;2022-09-02T09:30:29;751.83;;;691.13;;
10351;SDS011;5222;49.324;8.420;2022-09-02T09:32:56;744.60;;;685.33;;
10351;SDS011;5222;49.324;8.420;2022-09-02T09:35:25;747.20;;;688.27;;
10351;SDS011;5222;49.324;8.420;2022-09-02T09:37:55;758.42;;;698.58;;
10351;SDS011;5222;49.324;8.420;2022-09-02T09:40:23;740.08;;;682.38;;
10351;SDS011;5222;49.324;8.420;2022-09-02T09:42:56;756.58;;;697.05;;
10351;SDS011;5222;49.324;8.420;2022-09-02T09:45:27;760.97;;;701.95;;
10351;SDS011;5222;49.324;8.420;2022-09-02T09:48:05;755.45;;;696.35;;
10351;SDS011;5222;49.324;8.420;2022-09-02T09:50:43;759.08;;;699.42;;
10351;SDS011;5222;49.324;8.420;2022-09-02T09:53:18;738.53;;;679.35;;
10351;SDS011;5222;49.324;8.420;2022-09-02T09:55:50;741.00;;;682.00;;
10351;SDS011;5222;49.324;8.420;2022-09-02T09:58:18;752.28;;;693.92;;
10351;SDS011;5222;49.324;8.420;2022-09-02T10:00:46;759.20;;;698.90;;
10351;SDS011;5222;49.324;8.420;2022-09-02T10:03:17;742.50;;;684.45;;
10351;SDS011;5222;49.324;8.420;2022-09-02T10:05:48;755.78;;;696.83;;
10351;SDS011;5222;49.324;8.420;2022-09-02T10:08:20;754.13;;;694.63;;
10351;SDS011;5222;49.324;8.420;2022-09-02T10:10:54;750.65;;;691.40;;
10351;SDS011;5222;49.324;8.420;2022-09-02T10:13:24;746.10;;;688.47;;
10351;SDS011;5222;49.324;8.420;2022-09-02T10:16:05;757.97;;;698.45;;
10351;SDS011;5222;49.324;8.420;2022-09-02T10:18:42;778.53;;;718.85;;
10351;SDS011;5222;49.324;8.420;2022-09-02T10:21:18;771.85;;;712.33;;
10351;SDS011;5222;49.324;8.420;2022-09-02T10:23:56;769.47;;;710.28;;
10351;SDS011;5222;49.324;8.420;2022-09-02T10:26:35;756.05;;;697.28;;
10351;SDS011;5222;49.324;8.420;2022-09-02T10:29:22;767.95;;;707.78;;
10351;SDS011;5222;49.324;8.420;2022-09-02T10:32:13;765.07;;;705.47;;
10351;SDS011;5222;49.324;8.420;2022-09-02T10:34:50;771.40;;;711.33;;
10351;SDS011;5222;49.324;8.420;2022-09-02T10:37:24;755.35;;;696.28;;
10351;SDS011;5222;49.324;8.420;2022-09-02T10:40:00;759.85;;;700.38;;
10351;SDS011;5222;49.324;8.420;2022-09-02T10:42:48;753.45;;;694.35;;
10351;SDS011;5222;49.324;8.420;2022-09-02T10:45:29;766.60;;;707.47;;
10351;SDS011;5222;49.324;8.420;2022-09-02T10:48:02;762.05;;;701.70;;
10351;SDS011;5222;49.324;8.420;2022-09-02T10:50:38;742.73;;;683.83;;
10351;SDS011;5222;49.324;8.420;2022-09-02T10:56:12;767.15;;;708.22;;
10351;SDS011;5222;49.324;8.420;2022-09-02T10:58:43;772.73;;;712.90;;
10351;SDS011;5222;49.324;8.420;2022-09-02T11:01:17;764.28;;;705.45;;
10351;SDS011;5222;49.324;8.420;2022-09-02T11:03:50;774.83;;;714.33;;
10351;SDS011;5222;49.324;8.420;2022-09-02T11:06:31;755.83;;;697.13;;
10351;SDS011;5222;49.324;8.420;2022-09-02T11:09:05;757.95;;;698.95;;
10351;SDS011;5222;49.324;8.420;2022-09-02T11:11:39;747.50;;;689.10;;
10351;SDS011;5222;49.324;8.420;2022-09-02T11:14:14;786.72;;;724.70;;
10351;SDS011;5222;49.324;8.420;2022-09-02T11:16:45;753.33;;;694.30;;
10351;SDS011;5222;49.324;8.420;2022-09-02T11:19:17;758.90;;;699.53;;
10351;SDS011;5222;49.324;8.420;2022-09-02T11:21:51;767.47;;;707.97;;
10351;SDS011;5222;49.324;8.420;2022-09-02T11:24:25;765.85;;;705.63;;
10351;SDS011;5222;49.324;8.420;2022-09-02T11:26:59;771.22;;;711.45;;
10351;SDS011;5222;49.324;8.420;2022-09-02T11:29:34;774.55;;;715.25;;
10351;SDS011;5222;49.324;8.420;2022-09-02T11:32:09;792.75;;;731.83;;
10351;SDS011;5222;49.324;8.420;2022-09-02T11:34:41;795.80;;;735.42;;
10351;SDS011;5222;49.324;8.420;2022-09-02T11:37:11;802.85;;;743.25;;
10351;SDS011;5222;49.324;8.420;2022-09-02T11:39:50;812.05;;;751.38;;
10351;SDS011;5222;49.324;8.420;2022-09-02T11:42:25;790.95;;;731.10;;
10351;SDS011;5222;49.324;8.420;2022-09-02T11:48:09;799.20;;;738.58;;
10351;SDS011;5222;49.324;8.420;2022-09-02T11:51:10;801.60;;;741.00;;
10351;SDS011;5222;49.324;8.420;2022-09-02T11:53:49;814.28;;;753.67;;
10351;SDS011;5222;49.324;8.420;2022-09-02T11:56:18;804.83;;;745.57;;
10351;SDS011;5222;49.324;8.420;2022-09-02T11:58:50;818.67;;;757.63;;
10351;SDS011;5222;49.324;8.420;2022-09-02T12:01:20;810.38;;;749.28;;
10351;SDS011;5222;49.324;8.420;2022-09-02T12:03:53;821.80;;;760.10;;
10351;SDS011;5222;49.324;8.420;2022-09-02T12:06:24;817.45;;;756.42;;
10351;SDS011;5222;49.324;8.420;2022-09-02T12:11:43;797.80;;;737.33;;
10351;SDS011;5222;49.324;8.420;2022-09-02T12:17:38;789.27;;;729.40;;
10351;SDS011;5222;49.324;8.420;2022-09-02T12:29:31;793.37;;;733.90;;
10351;SDS011;5222;49.324;8.420;2022-09-02T12:31:59;808.00;;;747.37;;
10351;SDS011;5222;49.324;8.420;2022-09-02T12:40:17;797.55;;;738.10;;
10351;SDS011;5222;49.324;8.420;2022-09-02T12:42:50;781.75;;;722.50;;
10351;SDS011;5222;49.324;8.420;2022-09-02T12:45:22;792.83;;;732.40;;
10351;SDS011;5222;49.324;8.420;2022-09-02T12:47:52;803.80;;;743.45;;
10351;SDS011;5222;49.324;8.420;2022-09-02T12:50:27;814.65;;;753.20;;
10351;SDS011;5222;49.324;8.420;2022-09-02T12:53:11;824.45;;;762.30;;
10351;SDS011;5222;49.324;8.420;2022-09-02T12:55:52;830.28;;;768.17;;
10351;SDS011;5222;49.324;8.420;2022-09-02T12:58:22;810.55;;;749.53;;
10351;SDS011;5222;49.324;8.420;2022-09-02T13:00:53;817.47;;;756.58;;
10351;SDS011;5222;49.324;8.420;2022-09-02T13:03:32;811.60;;;751.30;;
10351;SDS011;5222;49.324;8.420;2022-09-02T13:06:16;792.03;;;732.45;;
10351;SDS011;5222;49.324;8.420;2022-09-02T13:08:54;810.20;;;749.03;;
10351;SDS011;5222;49.324;8.420;2022-09-02T13:11:40;808.10;;;747.67;;
10351;SDS011;5222;49.324;8.420;2022-09-02T13:14:29;801.42;;;740.58;;
10351;SDS011;5222;49.324;8.420;2022-09-02T13:17:21;802.47;;;742.07;;
10351;SDS011;5222;49.324;8.420;2022-09-02T13:23:14;789.33;;;729.67;;
10351;SDS011;5222;49.324;8.420;2022-09-02T13:26:05;791.95;;;732.03;;
10351;SDS011;5222;49.324;8.420;2022-09-02T13:28:45;805.08;;;745.17;;
10351;SDS011;5222;49.324;8.420;2022-09-02T13:31:35;820.63;;;760.28;;
10351;SDS011;5222;49.324;8.420;2022-09-02T13:34:03;815.95;;;754.85;;
10351;SDS011;5222;49.324;8.420;2022-09-02T13:36:33;801.35;;;741.83;;
10351;SDS011;5222;49.324;8.420;2022-09-02T13:39:11;802.00;;;741.95;;
10351;SDS011;5222;49.324;8.420;2022-09-02T13:41:38;801.53;;;741.30;;
10351;SDS011;5222;49.324;8.420;2022-09-02T13:44:06;793.42;;;732.03;;
10351;SDS011;5222;49.324;8.420;2022-09-02T13:46:41;783.60;;;724.58;;
10351;SDS011;5222;49.324;8.420;2022-09-02T13:49:16;796.60;;;736.67;;
10351;SDS011;5222;49.324;8.420;2022-09-02T13:51:48;808.25;;;747.55;;
10351;SDS011;5222;49.324;8.420;2022-09-02T13:54:27;812.58;;;750.55;;
10351;SDS011;5222;49.324;8.420;2022-09-02T13:56:57;793.92;;;733.67;;
10351;SDS011;5222;49.324;8.420;2022-09-02T13:59:31;793.53;;;733.03;;
10351;SDS011;5222;49.324;8.420;2022-09-02T14:02:13;798.05;;;737.38;;
10351;SDS011;5222;49.324;8.420;2022-09-02T14:04:46;796.78;;;736.28;;
10351;SDS011;5222;49.324;8.420;2022-09-02T14:07:16;797.67;;;738.45;;
10351;SDS011;5222;49.324;8.420;2022-09-02T14:09:49;807.45;;;746.80;;
10351;SDS011;5222;49.324;8.420;2022-09-02T14:12:17;804.90;;;744.93;;
10351;SDS011;5222;49.324;8.420;2022-09-02T14:14:45;799.55;;;739.72;;
10351;SDS011;5222;49.324;8.420;2022-09-02T14:17:19;796.13;;;735.95;;
10351;SDS011;5222;49.324;8.420;2022-09-02T14:19:47;806.42;;;746.05;;
10351;SDS011;5222;49.324;8.420;2022-09-02T14:22:18;811.13;;;751.03;;
10351;SDS011;5222;49.324;8.420;2022-09-02T14:24:50;816.65;;;756.00;;
10351;SDS011;5222;49.324;8.420;2022-09-02T14:27:17;799.15;;;738.90;;
10351;SDS011;5222;49.324;8.420;2022-09-02T14:29:46;813.78;;;752.58;;
10351;SDS011;5222;49.324;8.420;2022-09-02T14:32:23;814.85;;;753.33;;
10351;SDS011;5222;49.324;8.420;2022-09-02T14:35:08;802.47;;;741.90;;
10351;SDS011;5222;49.324;8.420;2022-09-02T14:37:48;800.13;;;740.17;;
10351;SDS011;5222;49.324;8.420;2022-09-02T14:40:18;792.75;;;732.65;;
10351;SDS011;5222;49.324;8.420;2022-09-02T14:43:00;808.72;;;748.03;;
10351;SDS011;5222;49.324;8.420;2022-09-02T14:45:29;803.08;;;743.17;;
10351;SDS011;5222;49.324;8.420;2022-09-02T14:47:58;802.90;;;740.70;;
10351;SDS011;5222;49.324;8.420;2022-09-02T14:50:28;809.20;;;748.58;;
10351;SDS011;5222;49.324;8.420;2022-09-02T14:53:02;793.80;;;733.67;;